Vg 117 Kungsvik — SBTH — position and weather

sailwx.info

Track history (hours):
 
Tides and Currents Weather Stations Pressure Air Temp Water Temp Dewpoint Dewpoint Depression Visibility Wind Speed Wind Dir Waves Ship Positions

Vg 117 Kungsvik

Last reported at 2014-Sep-03 03:33 UTC. Time now 2014-Sep-03 04:32 UTC.
Position N 56°46' E 012°08'.

Length 17 m.

Type: Fishing. MMSI: 266137000.

Date/timePositionNaut miles runAvg speedWind from/ knotsBaromVisibWave heightAir tempDewpointWater temp
2014-Sep-03 03:33N 56°46' E 012°08'3 2.5
2014-Sep-03 02:33N 56°48' E 012°11'5 4.9
2014-Sep-03 01:33N 56°53' E 012°13'9 8.4
2014-Sep-03 00:27N 57°02' E 012°14'2 1.7
2014-Sep-02 23:30N 57°04' E 012°16'0 0.0
2014-Sep-02 22:24N 57°04' E 012°16'0 0.0
2014-Sep-02 21:24N 57°04' E 012°16'0 0.0
2014-Sep-02 20:30N 57°04' E 012°16'0 0.0
2014-Sep-02 19:30N 57°04' E 012°16'0 0.0
2014-Sep-02 18:18N 57°04' E 012°16'0 0.0
2014-Sep-02 17:18N 57°04' E 012°16'0 0.0
2014-Sep-02 16:30N 57°04' E 012°16'0 0.0
2014-Sep-02 15:30N 57°04' E 012°16'0 0.0
2014-Sep-02 14:30N 57°04' E 012°16'1 0.5
2014-Sep-02 13:33N 57°03' E 012°16'0 0.5
2014-Sep-02 12:32N 57°04' E 012°16'0 0.0
2014-Sep-02 09:09N 57°04' E 012°16'0 0.0
2014-Sep-02 08:21N 57°04' E 012°16'0 0.0
2014-Sep-02 07:33N 57°04' E 012°16'0 0.0
2014-Sep-02 06:15N 57°04' E 012°16'0 0.0
2014-Sep-02 05:27N 57°04' E 012°16'0 0.0
2014-Sep-02 04:33N 57°04' E 012°16'0 0.0
2014-Sep-02 03:27N 57°04' E 012°16'0 0.0
2014-Sep-02 02:33N 57°04' E 012°16'0 0.0
2014-Sep-02 01:27N 57°04' E 012°16'0 0.0
2014-Sep-02 00:33N 57°04' E 012°16'0 0.0
2014-Sep-01 23:33N 57°04' E 012°16'0 0.0
2014-Sep-01 22:27N 57°04' E 012°16'0 0.0
2014-Sep-01 21:33N 57°04' E 012°16'0 0.0
2014-Sep-01 20:27N 57°04' E 012°16'0 0.0
2014-Sep-01 19:15N 57°04' E 012°16'0 0.0
2014-Sep-01 18:33N 57°04' E 012°16'0 0.0
2014-Sep-01 17:15N 57°04' E 012°16'0 0.0
2014-Sep-01 16:33N 57°04' E 012°16'0 0.0
2014-Sep-01 15:21N 57°04' E 012°16'0 0.0
2014-Sep-01 14:27N 57°04' E 012°16'0 0.0
2014-Sep-01 13:27N 57°04' E 012°16'0 0.0
2014-Sep-01 12:27N 57°04' E 012°16'0 0.0
2014-Sep-01 11:15N 57°04' E 012°16'0 0.0
2014-Sep-01 10:27N 57°04' E 012°16'0 0.0
2014-Sep-01 09:27N 57°04' E 012°16'0 0.0
2014-Sep-01 08:33N 57°04' E 012°16'0 0.0
2014-Sep-01 07:09N 57°04' E 012°16'0 0.0
2014-Sep-01 06:27N 57°04' E 012°16'0 0.0
2014-Sep-01 05:27N 57°04' E 012°16'0 0.0
2014-Sep-01 04:27N 57°04' E 012°16'0 0.0
2014-Sep-01 03:27N 57°04' E 012°16'0 0.0
2014-Sep-01 02:33N 57°04' E 012°16'6 6.3
2014-Sep-01 01:33N 56°57' E 012°14'10 1.5
2014-Aug-31 18:33N 56°48' E 012°08'2 2.3
2014-Aug-31 17:33N 56°49' E 012°11'4 3.8
2014-Aug-31 16:31N 56°53' E 012°13'7 7.5
2014-Aug-31 15:33N 56°60' E 012°14'4 3.7
2014-Aug-31 14:31N 57°04' E 012°16'0 0.0
2014-Aug-31 13:25N 57°04' E 012°16'0 0.0
2014-Aug-31 12:31N 57°04' E 012°16'0 0.0
2014-Aug-31 11:31N 57°04' E 012°16'0 0.0
2014-Aug-31 10:25N 57°04' E 012°16'0 0.0
2014-Aug-31 09:31N 57°04' E 012°16'0 0.0
2014-Aug-31 08:31N 57°04' E 012°16'0 0.0
2014-Aug-31 07:07N 57°04' E 012°16'0 0.0
2014-Aug-31 06:31N 57°04' E 012°16'0 0.0
2014-Aug-31 05:31N 57°04' E 012°16'0 0.0
2014-Aug-31 04:31N 57°04' E 012°16'0 0.0
2014-Aug-31 03:19N 57°04' E 012°16'0 0.0
2014-Aug-31 02:31N 57°04' E 012°16'0 0.0
2014-Aug-31 01:13N 57°04' E 012°16'0 0.0
2014-Aug-31 00:19N 57°04' E 012°16'0 0.0
2014-Aug-30 23:31N 57°04' E 012°16'0 0.0
2014-Aug-30 22:31N 57°04' E 012°16'0 0.0
2014-Aug-30 21:19N 57°04' E 012°16'0 0.0
2014-Aug-30 20:25N 57°04' E 012°16'0 0.0
2014-Aug-30 19:25N 57°04' E 012°16'0 0.0
2014-Aug-30 17:19N 57°04' E 012°16'0 0.0
2014-Aug-30 16:25N 57°04' E 012°16'0 0.0
2014-Aug-30 15:25N 57°04' E 012°16'0 0.0
2014-Aug-30 14:31N 57°04' E 012°16'0 0.0
2014-Aug-30 12:19N 57°04' E 012°16'0 0.0
2014-Aug-30 10:31N 57°04' E 012°16'0 0.0
2014-Aug-30 09:07N 57°04' E 012°16'0 0.0
2014-Aug-30 08:31N 57°04' E 012°16'0 0.0
2014-Aug-30 07:31N 57°04' E 012°16'0 0.0
2014-Aug-30 06:25N 57°04' E 012°16'0 0.0
2014-Aug-30 04:31N 57°04' E 012°16'0 0.0
2014-Aug-30 03:31N 57°04' E 012°16'0 0.0
2014-Aug-30 02:31N 57°04' E 012°16'0 0.0
2014-Aug-30 01:31N 57°04' E 012°16'0 0.0
2014-Aug-30 00:07N 57°04' E 012°16'0 0.0
2014-Aug-29 23:19N 57°04' E 012°16'0 0.0
2014-Aug-29 22:25N 57°04' E 012°16'0 0.0
2014-Aug-29 21:13N 57°04' E 012°16'0 0.0
2014-Aug-29 20:19N 57°04' E 012°16'0 0.0
2014-Aug-29 19:13N 57°04' E 012°16'0 0.0
2014-Aug-29 17:07N 57°04' E 012°16'0 0.0
2014-Aug-29 15:31N 57°04' E 012°16'0 0.0
2014-Aug-29 14:25N 57°04' E 012°16'0 0.0
2014-Aug-29 13:31N 57°04' E 012°16'0 0.0
2014-Aug-29 11:13N 57°04' E 012°16'0 0.0
2014-Aug-29 10:25N 57°04' E 012°16'0 0.0
2014-Aug-29 09:07N 57°04' E 012°16'0 0.0
2014-Aug-29 08:34N 57°04' E 012°16'8 7.6
2014-Aug-29 07:29N 56°56' E 012°10'6 6.6
2014-Aug-29 06:30N 56°51' E 012°04'2 1.6
2014-Aug-29 05:31N 56°49' E 012°05'2 2.5
2014-Aug-29 04:33N 56°47' E 012°06'2 2.2
2014-Aug-29 03:25N 56°44' E 012°07'2 2.0
2014-Aug-29 02:29N 56°46' E 012°08'2 2.5
2014-Aug-29 01:33N 56°47' E 012°05'2 2.1
2014-Aug-29 00:31N 56°45' E 012°06'1 0.6
2014-Aug-28 23:32N 56°44' E 012°06'2 2.5
2014-Aug-28 22:33N 56°46' E 012°04'2 1.7
2014-Aug-28 21:33N 56°47' E 012°07'2 2.1
2014-Aug-28 20:32N 56°45' E 012°08'2 1.8
2014-Aug-28 19:34N 56°46' E 012°05'3 2.6
2014-Aug-28 18:33N 56°48' E 012°05'2 2.5
2014-Aug-28 17:33N 56°50' E 012°03'4 4.2
2014-Aug-28 16:33N 56°54' E 012°06'7 7.4
2014-Aug-28 15:33N 57°01' E 012°12'4 3.2
2014-Aug-28 14:26N 57°04' E 012°16'0 0.0
2014-Aug-28 13:32N 57°04' E 012°16'0 0.0
2014-Aug-28 12:26N 57°04' E 012°16'0 0.0
2014-Aug-28 11:32N 57°04' E 012°16'0 0.0
2014-Aug-28 10:26N 57°04' E 012°16'0 0.0
2014-Aug-28 09:20N 57°04' E 012°16'1 0.9
2014-Aug-28 08:28N 57°03' E 012°15'7 7.8
2014-Aug-28 07:33N 56°56' E 012°10'8 7.6
2014-Aug-28 06:33N 56°49' E 012°05'1 1.1
2014-Aug-28 05:32N 56°48' E 012°05'2 2.3
2014-Aug-28 04:30N 56°46' E 012°08'2 2.4
2014-Aug-28 03:32N 56°44' E 012°07'2 2.1
2014-Aug-28 02:32N 56°46' E 012°05'1 1.4
2014-Aug-28 01:32N 56°47' E 012°03'3 2.0
2014-Aug-28 00:07N 56°45' E 012°06'1 1.1
2014-Aug-27 23:32N 56°45' E 012°05'3 2.6
2014-Aug-27 22:31N 56°47' E 012°03'1 1.1
2014-Aug-27 21:33N 56°47' E 012°05'2 2.3
2014-Aug-27 20:33N 56°44' E 012°05'2 2.4
2014-Aug-27 19:33N 56°46' E 012°03'3 2.6
2014-Aug-27 18:32N 56°49' E 012°05'2 2.2
2014-Aug-27 17:33N 56°51' E 012°03'4 4.4
2014-Aug-27 16:33N 56°54' E 012°06'8 7.8
2014-Aug-27 15:28N 57°02' E 012°13'1 0.2
2014-Aug-27 08:14N 57°03' E 012°15'5 7.0
2014-Aug-27 07:33N 56°59' E 012°11'7 7.3
2014-Aug-27 06:33N 56°53' E 012°04'3 2.1
2014-Aug-27 05:08N 56°50' E 012°04'2 2.5
2014-Aug-27 04:32N 56°48' E 012°03'3 2.5
2014-Aug-27 03:09N 56°45' E 012°05'1 1.8
2014-Aug-27 02:30N 56°45' E 012°03'2 2.4
2014-Aug-27 01:33N 56°47' E 012°03'2 1.4
2014-Aug-27 00:26N 56°46' E 012°05'3 2.7
2014-Aug-26 23:28N 56°44' E 012°05'1 1.4
2014-Aug-26 22:33N 56°45' E 012°04'3 2.5
2014-Aug-26 21:33N 56°47' E 012°03'1 1.1
2014-Aug-26 20:33N 56°47' E 012°05'  
Track history (hours):
 
Tides and Currents Weather Stations Pressure Air Temp Water Temp Dewpoint Dewpoint Depression Visibility Wind Speed Wind Dir Waves Ship Positions

Vg 117 Kungsvik

Last reported at 2014-Sep-03 03:33 UTC. Time now 2014-Sep-03 04:32 UTC.
Position N 56°46' E 012°08'.

Length 17 m.

Type: Fishing. MMSI: 266137000.

Date/timePositionNaut miles runAvg speedWind from/ knotsBaromVisibWave heightAir tempDewpointWater temp
2014-Sep-03 03:33N 56°46' E 012°08'3 2.5
2014-Sep-03 02:33N 56°48' E 012°11'5 4.9
2014-Sep-03 01:33N 56°53' E 012°13'9 8.4
2014-Sep-03 00:27N 57°02' E 012°14'2 1.7
2014-Sep-02 23:30N 57°04' E 012°16'0 0.0
2014-Sep-02 22:24N 57°04' E 012°16'0 0.0
2014-Sep-02 21:24N 57°04' E 012°16'0 0.0
2014-Sep-02 20:30N 57°04' E 012°16'0 0.0
2014-Sep-02 19:30N 57°04' E 012°16'0 0.0
2014-Sep-02 18:18N 57°04' E 012°16'0 0.0
2014-Sep-02 17:18N 57°04' E 012°16'0 0.0
2014-Sep-02 16:30N 57°04' E 012°16'0 0.0
2014-Sep-02 15:30N 57°04' E 012°16'0 0.0
2014-Sep-02 14:30N 57°04' E 012°16'1 0.5
2014-Sep-02 13:33N 57°03' E 012°16'0 0.5
2014-Sep-02 12:32N 57°04' E 012°16'0 0.0
2014-Sep-02 09:09N 57°04' E 012°16'0 0.0
2014-Sep-02 08:21N 57°04' E 012°16'0 0.0
2014-Sep-02 07:33N 57°04' E 012°16'0 0.0
2014-Sep-02 06:15N 57°04' E 012°16'0 0.0
2014-Sep-02 05:27N 57°04' E 012°16'0 0.0
2014-Sep-02 04:33N 57°04' E 012°16'0 0.0
2014-Sep-02 03:27N 57°04' E 012°16'0 0.0
2014-Sep-02 02:33N 57°04' E 012°16'0 0.0
2014-Sep-02 01:27N 57°04' E 012°16'0 0.0
2014-Sep-02 00:33N 57°04' E 012°16'0 0.0
2014-Sep-01 23:33N 57°04' E 012°16'0 0.0
2014-Sep-01 22:27N 57°04' E 012°16'0 0.0
2014-Sep-01 21:33N 57°04' E 012°16'0 0.0
2014-Sep-01 20:27N 57°04' E 012°16'0 0.0
2014-Sep-01 19:15N 57°04' E 012°16'0 0.0
2014-Sep-01 18:33N 57°04' E 012°16'0 0.0
2014-Sep-01 17:15N 57°04' E 012°16'0 0.0
2014-Sep-01 16:33N 57°04' E 012°16'0 0.0
2014-Sep-01 15:21N 57°04' E 012°16'0 0.0
2014-Sep-01 14:27N 57°04' E 012°16'0 0.0
2014-Sep-01 13:27N 57°04' E 012°16'0 0.0
2014-Sep-01 12:27N 57°04' E 012°16'0 0.0
2014-Sep-01 11:15N 57°04' E 012°16'0 0.0
2014-Sep-01 10:27N 57°04' E 012°16'0 0.0
2014-Sep-01 09:27N 57°04' E 012°16'0 0.0
2014-Sep-01 08:33N 57°04' E 012°16'0 0.0
2014-Sep-01 07:09N 57°04' E 012°16'0 0.0
2014-Sep-01 06:27N 57°04' E 012°16'0 0.0
2014-Sep-01 05:27N 57°04' E 012°16'0 0.0
2014-Sep-01 04:27N 57°04' E 012°16'0 0.0
2014-Sep-01 03:27N 57°04' E 012°16'0 0.0
2014-Sep-01 02:33N 57°04' E 012°16'6 6.3
2014-Sep-01 01:33N 56°57' E 012°14'10 1.5
2014-Aug-31 18:33N 56°48' E 012°08'2 2.3
2014-Aug-31 17:33N 56°49' E 012°11'4 3.8
2014-Aug-31 16:31N 56°53' E 012°13'7 7.5
2014-Aug-31 15:33N 56°60' E 012°14'4 3.7
2014-Aug-31 14:31N 57°04' E 012°16'0 0.0
2014-Aug-31 13:25N 57°04' E 012°16'0 0.0
2014-Aug-31 12:31N 57°04' E 012°16'0 0.0
2014-Aug-31 11:31N 57°04' E 012°16'0 0.0
2014-Aug-31 10:25N 57°04' E 012°16'0 0.0
2014-Aug-31 09:31N 57°04' E 012°16'0 0.0
2014-Aug-31 08:31N 57°04' E 012°16'0 0.0
2014-Aug-31 07:07N 57°04' E 012°16'0 0.0
2014-Aug-31 06:31N 57°04' E 012°16'0 0.0
2014-Aug-31 05:31N 57°04' E 012°16'0 0.0
2014-Aug-31 04:31N 57°04' E 012°16'0 0.0
2014-Aug-31 03:19N 57°04' E 012°16'0 0.0
2014-Aug-31 02:31N 57°04' E 012°16'0 0.0
2014-Aug-31 01:13N 57°04' E 012°16'0 0.0
2014-Aug-31 00:19N 57°04' E 012°16'0 0.0
2014-Aug-30 23:31N 57°04' E 012°16'0 0.0
2014-Aug-30 22:31N 57°04' E 012°16'0 0.0
2014-Aug-30 21:19N 57°04' E 012°16'0 0.0
2014-Aug-30 20:25N 57°04' E 012°16'0 0.0
2014-Aug-30 19:25N 57°04' E 012°16'0 0.0
2014-Aug-30 17:19N 57°04' E 012°16'0 0.0
2014-Aug-30 16:25N 57°04' E 012°16'0 0.0
2014-Aug-30 15:25N 57°04' E 012°16'0 0.0
2014-Aug-30 14:31N 57°04' E 012°16'0 0.0
2014-Aug-30 12:19N 57°04' E 012°16'0 0.0
2014-Aug-30 10:31N 57°04' E 012°16'0 0.0
2014-Aug-30 09:07N 57°04' E 012°16'0 0.0
2014-Aug-30 08:31N 57°04' E 012°16'0 0.0
2014-Aug-30 07:31N 57°04' E 012°16'0 0.0
2014-Aug-30 06:25N 57°04' E 012°16'0 0.0
2014-Aug-30 04:31N 57°04' E 012°16'0 0.0
2014-Aug-30 03:31N 57°04' E 012°16'0 0.0
2014-Aug-30 02:31N 57°04' E 012°16'0 0.0
2014-Aug-30 01:31N 57°04' E 012°16'0 0.0
2014-Aug-30 00:07N 57°04' E 012°16'0 0.0
2014-Aug-29 23:19N 57°04' E 012°16'0 0.0
2014-Aug-29 22:25N 57°04' E 012°16'0 0.0
2014-Aug-29 21:13N 57°04' E 012°16'0 0.0
2014-Aug-29 20:19N 57°04' E 012°16'0 0.0
2014-Aug-29 19:13N 57°04' E 012°16'0 0.0
2014-Aug-29 17:07N 57°04' E 012°16'0 0.0
2014-Aug-29 15:31N 57°04' E 012°16'0 0.0
2014-Aug-29 14:25N 57°04' E 012°16'0 0.0
2014-Aug-29 13:31N 57°04' E 012°16'0 0.0
2014-Aug-29 11:13N 57°04' E 012°16'0 0.0
2014-Aug-29 10:25N 57°04' E 012°16'0 0.0
2014-Aug-29 09:07N 57°04' E 012°16'0 0.0
2014-Aug-29 08:34N 57°04' E 012°16'8 7.6
2014-Aug-29 07:29N 56°56' E 012°10'6 6.6
2014-Aug-29 06:30N 56°51' E 012°04'2 1.6
2014-Aug-29 05:31N 56°49' E 012°05'2 2.5
2014-Aug-29 04:33N 56°47' E 012°06'2 2.2
2014-Aug-29 03:25N 56°44' E 012°07'2 2.0
2014-Aug-29 02:29N 56°46' E 012°08'2 2.5
2014-Aug-29 01:33N 56°47' E 012°05'2 2.1
2014-Aug-29 00:31N 56°45' E 012°06'1 0.6
2014-Aug-28 23:32N 56°44' E 012°06'2 2.5
2014-Aug-28 22:33N 56°46' E 012°04'2 1.7
2014-Aug-28 21:33N 56°47' E 012°07'2 2.1
2014-Aug-28 20:32N 56°45' E 012°08'2 1.8
2014-Aug-28 19:34N 56°46' E 012°05'3 2.6
2014-Aug-28 18:33N 56°48' E 012°05'2 2.5
2014-Aug-28 17:33N 56°50' E 012°03'4 4.2
2014-Aug-28 16:33N 56°54' E 012°06'7 7.4
2014-Aug-28 15:33N 57°01' E 012°12'4 3.2
2014-Aug-28 14:26N 57°04' E 012°16'0 0.0
2014-Aug-28 13:32N 57°04' E 012°16'0 0.0
2014-Aug-28 12:26N 57°04' E 012°16'0 0.0
2014-Aug-28 11:32N 57°04' E 012°16'0 0.0
2014-Aug-28 10:26N 57°04' E 012°16'0 0.0
2014-Aug-28 09:20N 57°04' E 012°16'1 0.9
2014-Aug-28 08:28N 57°03' E 012°15'7 7.8
2014-Aug-28 07:33N 56°56' E 012°10'8 7.6
2014-Aug-28 06:33N 56°49' E 012°05'1 1.1
2014-Aug-28 05:32N 56°48' E 012°05'2 2.3
2014-Aug-28 04:30N 56°46' E 012°08'2 2.4
2014-Aug-28 03:32N 56°44' E 012°07'2 2.1
2014-Aug-28 02:32N 56°46' E 012°05'1 1.4
2014-Aug-28 01:32N 56°47' E 012°03'3 2.0
2014-Aug-28 00:07N 56°45' E 012°06'1 1.1
2014-Aug-27 23:32N 56°45' E 012°05'3 2.6
2014-Aug-27 22:31N 56°47' E 012°03'1 1.1
2014-Aug-27 21:33N 56°47' E 012°05'2 2.3
2014-Aug-27 20:33N 56°44' E 012°05'2 2.4
2014-Aug-27 19:33N 56°46' E 012°03'3 2.6
2014-Aug-27 18:32N 56°49' E 012°05'2 2.2
2014-Aug-27 17:33N 56°51' E 012°03'4 4.4
2014-Aug-27 16:33N 56°54' E 012°06'8 7.8
2014-Aug-27 15:28N 57°02' E 012°13'1 0.2
2014-Aug-27 08:14N 57°03' E 012°15'5 7.0
2014-Aug-27 07:33N 56°59' E 012°11'7 7.3
2014-Aug-27 06:33N 56°53' E 012°04'3 2.1
2014-Aug-27 05:08N 56°50' E 012°04'2 2.5
2014-Aug-27 04:32N 56°48' E 012°03'3 2.5
2014-Aug-27 03:09N 56°45' E 012°05'1 1.8
2014-Aug-27 02:30N 56°45' E 012°03'2 2.4
2014-Aug-27 01:33N 56°47' E 012°03'2 1.4
2014-Aug-27 00:26N 56°46' E 012°05'3 2.7
2014-Aug-26 23:28N 56°44' E 012°05'1 1.4
2014-Aug-26 22:33N 56°45' E 012°04'3 2.5
2014-Aug-26 21:33N 56°47' E 012°03'1 1.1
2014-Aug-26 20:33N 56°47' E 012°05'  

Dump ship's entire track history